Time;durP1;ratioP1;P1;durP2;ratioP2;P2;SDS_P1;SDS_P2;PMS_P1;PMS_P2;Temp;Humidity;BMP_temperature;BMP_pressure;BME280_temperature;BME280_humidity;BME280_pressure;Samples;Min_cycle;Max_cycle;Signal;HPM_P1;HPM_P2
2022/01/21 00:00:50;;;;;;;6.65;2.75;;;4.90;99.90;;;;;;5058998;28;20194;-77
2022/01/21 00:03:16;;;;;;;20.50;3.53;;;5.10;99.90;;;;;;5059261;28;20163;-80
2022/01/21 00:05:42;;;;;;;10.00;2.35;;;4.90;99.90;;;;;;5059390;28;20163;-77
2022/01/21 00:08:07;;;;;;;6.55;2.25;;;4.90;99.90;;;;;;5059196;28;20646;-78
2022/01/21 00:10:33;;;;;;;11.63;3.30;;;4.80;99.90;;;;;;5058844;28;20226;-78
2022/01/21 00:12:58;;;;;;;9.60;2.47;;;4.70;99.90;;;;;;5074280;28;20260;-77
2022/01/21 00:15:24;;;;;;;12.35;3.80;;;4.70;99.90;;;;;;5059347;28;20242;-79
2022/01/21 00:17:50;;;;;;;8.27;2.40;;;4.70;99.90;;;;;;5059235;28;20261;-79
2022/01/21 00:31:11;;;;;;;12.15;3.53;;;4.70;99.90;;;;;;5059967;28;20197;-78
2022/01/21 00:33:37;;;;;;;8.15;2.28;;;4.80;99.90;;;;;;5058869;28;20235;-78
2022/01/21 00:36:05;;;;;;;15.63;3.50;;;4.90;99.90;;;;;;5059186;28;20159;-78
2022/01/21 00:38:31;;;;;;;10.40;2.63;;;4.80;99.90;;;;;;5059112;28;20171;-78
2022/01/21 00:41:00;;;;;;;12.57;2.75;;;4.70;99.90;;;;;;5059150;28;20179;-78
2022/01/21 00:43:31;;;;;;;10.00;3.08;;;4.60;99.90;;;;;;5058867;28;20624;-80
2022/01/21 00:46:00;;;;;;;14.63;3.22;;;4.40;99.90;;;;;;5055448;28;20175;-78
2022/01/21 00:48:27;;;;;;;23.58;3.53;;;4.30;99.90;;;;;;5056051;28;20244;-85
2022/01/21 00:50:53;;;;;;;9.82;3.55;;;4.40;99.90;;;;;;5054381;28;20198;-78
2022/01/21 00:53:18;;;;;;;11.55;2.65;;;4.50;99.90;;;;;;5055515;28;20207;-79
2022/01/21 00:55:44;;;;;;;16.30;4.13;;;4.50;99.90;;;;;;5055924;28;20175;-77
2022/01/21 00:58:10;;;;;;;9.30;3.58;;;4.50;99.90;;;;;;5071157;28;20171;-83
2022/01/21 01:00:36;;;;;;;13.50;3.22;;;4.50;99.90;;;;;;5055467;28;20183;-82
2022/01/21 01:03:03;;;;;;;11.23;4.30;;;4.20;99.90;;;;;;5055871;28;20162;-78
2022/01/21 01:05:29;;;;;;;21.42;4.18;;;4.10;99.90;;;;;;5055451;28;20178;-80
2022/01/21 01:07:55;;;;;;;17.88;5.00;;;4.10;99.90;;;;;;5054471;28;20171;-78
2022/01/21 01:10:39;;;;;;;13.52;4.25;;;4.10;99.90;;;;;;5055618;28;20171;-81
2022/01/21 01:21:19;;;;;;;14.65;3.55;;;4.20;99.90;;;;;;5055265;28;20573;-78
2022/01/21 01:24:04;;;;;;;13.45;4.10;;;4.00;99.90;;;;;;5055524;28;20171;-78
2022/01/21 01:29:16;;;;;;;8.55;3.17;;;3.80;99.90;;;;;;5055809;28;20183;-79
2022/01/21 01:31:42;;;;;;;8.15;3.05;;;4.00;99.90;;;;;;5055166;28;20556;-77
2022/01/21 01:34:07;;;;;;;10.82;4.70;;;4.00;99.90;;;;;;5054978;28;20534;-77
2022/01/21 01:36:33;;;;;;;11.43;3.33;;;3.90;99.90;;;;;;5062979;28;20167;-77
2022/01/21 01:39:09;;;;;;;10.18;4.15;;;4.40;99.90;;;;;;5066628;28;20178;-78
2022/01/21 01:41:48;;;;;;;8.23;3.88;;;4.30;99.90;;;;;;5065843;28;20186;-78
2022/01/21 01:49:41;;;;;;;22.50;4.60;;;4.30;99.90;;;;;;5054283;28;20715;-77
2022/01/21 01:52:10;;;;;;;19.38;4.38;;;4.30;99.90;;;;;;5054495;28;20286;-78
2022/01/21 01:54:40;;;;;;;13.52;4.85;;;4.10;99.90;;;;;;5054352;28;20217;-77
2022/01/21 01:57:06;;;;;;;16.50;4.93;;;4.00;99.90;;;;;;5053496;28;20175;-78
2022/01/21 01:59:31;;;;;;;8.18;4.97;;;3.90;99.90;;;;;;5054206;28;20251;-78
2022/01/21 02:02:00;;;;;;;11.80;4.60;;;4.10;99.90;;;;;;5053674;28;20270;-77
2022/01/21 02:04:26;;;;;;;23.48;4.90;;;4.10;99.90;;;;;;5054174;28;20518;-79
2022/01/21 02:06:52;;;;;;;13.00;4.90;;;4.10;99.90;;;;;;5053031;28;20178;-78
2022/01/21 02:09:19;;;;;;;21.05;5.28;;;4.10;99.90;;;;;;5053985;28;20163;-77
2022/01/21 02:11:45;;;;;;;17.05;5.05;;;4.20;99.90;;;;;;5053711;28;20199;-77
2022/01/21 02:14:15;;;;;;;9.52;4.60;;;4.30;99.90;;;;;;5054040;28;20175;-78
2022/01/21 02:21:29;;;;;;;11.25;4.80;;;4.10;99.90;;;;;;5054178;28;20201;-84
2022/01/21 02:22:19;;;;;;;9.15;3.45;;;4.40;99.90;;;;;;5053630;28;20218;-80
2022/01/21 02:24:50;;;;;;;12.07;4.35;;;4.40;99.90;;;;;;5053702;28;20167;-77
2022/01/21 02:27:16;;;;;;;13.25;4.50;;;4.50;99.90;;;;;;5053536;28;20630;-78
2022/01/21 02:29:47;;;;;;;13.25;3.70;;;4.60;99.90;;;;;;5053727;28;20166;-77
2022/01/21 02:32:14;;;;;;;16.38;3.80;;;4.70;99.90;;;;;;5053463;28;20206;-81
2022/01/21 02:34:42;;;;;;;14.18;4.15;;;4.60;99.90;;;;;;5053667;28;20171;-79
2022/01/21 02:37:09;;;;;;;11.82;3.42;;;4.60;99.90;;;;;;5053495;28;20175;-77
2022/01/21 02:39:34;;;;;;;8.13;2.75;;;4.90;99.90;;;;;;5053554;28;20171;-77
2022/01/21 02:42:00;;;;;;;5.00;2.47;;;4.70;99.90;;;;;;5053183;28;20278;-78
2022/01/21 02:44:26;;;;;;;18.63;3.60;;;4.80;99.90;;;;;;5068628;28;20170;-77
2022/01/21 02:46:56;;;;;;;12.50;2.88;;;4.80;99.90;;;;;;5053306;28;20163;-79
2022/01/21 02:49:22;;;;;;;6.30;2.13;;;4.80;99.90;;;;;;5053506;28;20174;-78
2022/01/21 02:51:48;;;;;;;9.05;2.33;;;4.90;99.90;;;;;;5053654;28;20191;-77
2022/01/21 02:54:14;;;;;;;8.05;2.15;;;5.00;99.90;;;;;;5054762;28;20167;-77
2022/01/21 02:56:40;;;;;;;12.05;2.13;;;5.20;99.90;;;;;;5054514;28;20648;-77
2022/01/21 02:59:07;;;;;;;8.98;1.95;;;5.00;99.90;;;;;;5053090;28;20182;-78
2022/01/21 03:01:35;;;;;;;5.47;1.55;;;5.10;99.90;;;;;;5053575;28;20244;-77
2022/01/21 03:04:05;;;;;;;11.68;2.45;;;4.90;99.90;;;;;;5053103;28;20167;-78
2022/01/21 03:06:31;;;;;;;9.35;1.85;;;5.00;99.90;;;;;;5052631;28;20628;-77
2022/01/21 03:08:59;;;;;;;4.38;1.60;;;4.90;99.90;;;;;;5052666;28;20300;-77
2022/01/21 03:11:27;;;;;;;10.45;1.63;;;5.10;99.90;;;;;;5052694;28;20183;-77
2022/01/21 03:13:53;;;;;;;8.23;2.30;;;5.10;99.90;;;;;;5054070;28;20182;-77
2022/01/21 03:16:19;;;;;;;8.95;1.88;;;5.10;99.90;;;;;;5058439;28;20216;-77
2022/01/21 03:18:45;;;;;;;16.80;2.88;;;5.20;99.90;;;;;;5056933;28;20163;-79
2022/01/21 03:21:16;;;;;;;15.38;1.48;;;5.20;99.90;;;;;;5057927;28;20202;-78
2022/01/21 03:23:47;;;;;;;11.27;2.08;;;5.10;99.90;;;;;;5056164;28;20710;-79
2022/01/21 03:26:19;;;;;;;7.10;1.75;;;5.00;99.90;;;;;;5062024;28;20167;-78
2022/01/21 03:28:49;;;;;;;3.00;1.35;;;4.80;99.90;;;;;;5062933;28;20193;-77
2022/01/21 03:31:15;;;;;;;7.97;1.20;;;4.80;99.90;;;;;;5057269;28;20559;-78
2022/01/21 03:33:43;;;;;;;7.25;1.60;;;4.70;99.90;;;;;;5058419;28;20170;-77
2022/01/21 03:36:09;;;;;;;8.50;1.48;;;4.70;99.90;;;;;;5058743;28;20171;-78
2022/01/21 03:38:36;;;;;;;6.25;1.55;;;4.80;99.90;;;;;;5057038;28;20159;-78
2022/01/21 03:41:02;;;;;;;11.60;2.20;;;5.00;99.90;;;;;;5058031;28;20271;-78
2022/01/21 03:43:31;;;;;;;5.70;1.80;;;5.00;99.90;;;;;;5057440;28;20163;-79
2022/01/21 03:45:58;;;;;;;8.57;2.35;;;4.80;99.90;;;;;;5055108;28;20604;-80
2022/01/21 03:48:25;;;;;;;3.67;1.63;;;4.80;99.90;;;;;;5053099;28;20163;-77
2022/01/21 03:50:51;;;;;;;9.15;2.00;;;4.90;99.90;;;;;;5056487;28;20194;-78
2022/01/21 03:53:18;;;;;;;4.63;1.80;;;4.80;99.90;;;;;;5068469;28;20214;-77
2022/01/21 03:55:44;;;;;;;8.40;2.10;;;4.80;99.90;;;;;;5063423;28;20611;-78
2022/01/21 03:58:12;;;;;;;7.82;1.65;;;4.70;99.90;;;;;;5056716;28;20179;-77
2022/01/21 04:01:00;;;;;;;5.30;1.90;;;4.90;99.90;;;;;;5062852;28;20252;-78
2022/01/21 04:03:26;;;;;;;4.60;1.95;;;4.90;99.90;;;;;;5069191;28;20186;-77
2022/01/21 04:05:53;;;;;;;8.57;2.38;;;4.80;99.90;;;;;;5085138;28;20175;-77
2022/01/21 04:08:19;;;;;;;10.95;2.08;;;5.00;99.90;;;;;;5059857;28;20175;-78
2022/01/21 04:10:48;;;;;;;9.40;2.25;;;5.10;99.90;;;;;;5063397;28;20193;-77
2022/01/21 04:13:22;;;;;;;5.03;1.77;;;5.00;99.90;;;;;;5069295;28;20276;-78
2022/01/21 04:15:54;;;;;;;12.57;2.15;;;4.70;99.90;;;;;;5068930;28;20172;-80
2022/01/21 04:18:20;;;;;;;8.25;2.30;;;4.60;99.90;;;;;;5060984;28;20171;-78
2022/01/21 04:20:48;;;;;;;10.70;2.47;;;4.60;99.90;;;;;;5057297;28;20205;-77
2022/01/21 04:23:16;;;;;;;9.77;4.05;;;4.80;99.90;;;;;;5061560;28;20178;-78
2022/01/21 04:25:42;;;;;;;6.78;2.90;;;4.90;99.90;;;;;;5062677;28;20167;-77
2022/01/21 04:28:09;;;;;;;15.48;2.63;;;4.90;99.90;;;;;;5061453;28;20175;-77
2022/01/21 04:30:36;;;;;;;26.30;2.97;;;4.90;99.90;;;;;;5061754;28;20274;-77
2022/01/21 04:33:03;;;;;;;14.18;3.17;;;4.70;99.90;;;;;;5056888;28;20214;-78
2022/01/21 04:35:31;;;;;;;10.82;2.80;;;4.60;99.90;;;;;;5056029;28;20187;-76
2022/01/21 04:38:00;;;;;;;13.48;2.95;;;4.60;99.90;;;;;;5055658;28;20183;-77
2022/01/21 04:40:33;;;;;;;10.45;3.47;;;4.70;99.90;;;;;;5055631;28;20213;-77
2022/01/21 04:48:29;;;;;;;16.00;3.40;;;4.70;99.90;;;;;;5055221;28;20197;-76
2022/01/21 04:50:58;;;;;;;8.07;3.00;;;4.90;99.90;;;;;;5054851;28;20644;-77
2022/01/21 04:53:26;;;;;;;16.25;3.30;;;4.80;99.90;;;;;;5056403;28;20229;-77
2022/01/21 04:55:52;;;;;;;10.70;3.22;;;4.80;99.90;;;;;;5070469;28;20262;-77
2022/01/21 04:58:18;;;;;;;11.98;3.60;;;4.80;99.90;;;;;;5055502;28;20171;-84
2022/01/21 05:00:44;;;;;;;11.50;3.25;;;4.80;99.90;;;;;;5055649;28;20648;-78
2022/01/21 05:03:10;;;;;;;10.00;3.50;;;4.70;99.90;;;;;;5055470;28;20246;-84
2022/01/21 05:05:37;;;;;;;5.50;3.13;;;4.70;99.90;;;;;;5055284;28;20168;-84
2022/01/21 05:08:07;;;;;;;17.55;3.60;;;4.50;99.90;;;;;;5055121;28;20201;-77
2022/01/21 05:10:34;;;;;;;11.13;3.75;;;4.40;99.90;;;;;;5054924;28;20675;-76
2022/01/21 05:13:00;;;;;;;14.73;4.20;;;4.40;99.90;;;;;;5054550;28;20581;-77
2022/01/21 05:15:57;;;;;;;18.95;3.33;;;4.50;99.90;;;;;;5054985;28;20250;-85
2022/01/21 05:18:17;;;;;;;11.55;3.05;;;4.50;99.90;;;;;;5054700;28;20233;-78
2022/01/21 05:20:42;;;;;;;16.08;3.47;;;4.50;99.90;;;;;;5054480;28;20202;-79
2022/01/21 05:23:08;;;;;;;22.20;4.68;;;4.70;99.90;;;;;;5054505;28;20167;-77
2022/01/21 05:25:34;;;;;;;14.85;3.60;;;4.50;99.90;;;;;;5054524;28;20241;-77
2022/01/21 05:28:00;;;;;;;13.68;3.58;;;4.50;99.90;;;;;;5053956;28;20178;-76
2022/01/21 05:30:25;;;;;;;10.60;3.45;;;4.50;99.90;;;;;;5054070;28;20615;-77
2022/01/21 05:32:51;;;;;;;16.13;3.83;;;4.40;99.90;;;;;;5054820;28;20290;-81
2022/01/21 05:35:16;;;;;;;5.40;3.00;;;4.60;99.90;;;;;;5054880;28;20171;-76
2022/01/21 05:37:42;;;;;;;22.55;4.10;;;4.70;99.90;;;;;;5054523;28;20167;-77
2022/01/21 05:40:14;;;;;;;15.52;3.70;;;4.60;99.90;;;;;;5054196;28;20217;-79
2022/01/21 05:42:39;;;;;;;6.25;3.53;;;4.60;99.90;;;;;;5054295;28;20175;-77
2022/01/21 05:47:35;;;;;;;12.85;3.25;;;4.60;99.90;;;;;;5054855;28;20181;-81
2022/01/21 05:50:01;;;;;;;12.48;4.10;;;4.90;99.90;;;;;;5054743;28;20250;-77
2022/01/21 05:52:37;;;;;;;13.18;4.03;;;5.20;99.90;;;;;;5053246;28;20237;-78
2022/01/21 05:55:03;;;;;;;11.18;3.58;;;5.20;99.90;;;;;;5054353;28;20503;-77
2022/01/21 05:57:30;;;;;;;3.15;2.60;;;5.10;99.90;;;;;;5054638;28;20163;-79
2022/01/21 05:59:56;;;;;;;17.08;3.55;;;5.20;99.90;;;;;;5062852;28;20243;-78
2022/01/21 06:02:22;;;;;;;12.70;3.25;;;4.90;99.90;;;;;;5069572;28;20183;-77
2022/01/21 06:04:51;;;;;;;14.57;3.85;;;4.90;99.90;;;;;;5065626;28;20166;-77
2022/01/21 06:07:17;;;;;;;8.55;3.67;;;4.80;99.90;;;;;;5056157;28;20171;-85
2022/01/21 06:09:43;;;;;;;7.82;3.58;;;4.60;99.90;;;;;;5052394;28;20638;-76
2022/01/21 06:12:09;;;;;;;9.23;3.30;;;4.30;99.90;;;;;;5053779;28;20647;-77
2022/01/21 06:14:36;;;;;;;5.50;3.55;;;4.30;99.90;;;;;;5053539;28;20177;-77
2022/01/21 06:17:02;;;;;;;6.80;3.55;;;4.20;99.90;;;;;;5053892;28;20167;-78
2022/01/21 06:19:28;;;;;;;7.35;3.42;;;4.30;99.90;;;;;;5053708;28;20159;-77
2022/01/21 06:21:53;;;;;;;8.25;2.85;;;4.30;99.90;;;;;;5053677;28;20571;-87
2022/01/21 06:24:19;;;;;;;6.03;3.13;;;4.30;99.90;;;;;;5053522;28;20163;-77
2022/01/21 06:26:45;;;;;;;7.28;4.05;;;4.30;99.90;;;;;;5053521;28;20175;-77
2022/01/21 06:29:11;;;;;;;10.43;2.80;;;4.30;99.90;;;;;;5053799;28;20261;-76
2022/01/21 06:31:36;;;;;;;6.72;3.50;;;4.30;99.90;;;;;;5052880;28;21073;-76
2022/01/21 06:34:02;;;;;;;13.02;3.97;;;4.30;99.90;;;;;;5053353;28;20159;-77
2022/01/21 06:36:28;;;;;;;7.70;3.08;;;4.40;99.90;;;;;;5051709;28;20174;-77
2022/01/21 06:38:54;;;;;;;10.48;3.45;;;4.40;99.90;;;;;;5052880;28;20612;-78
2022/01/21 06:41:20;;;;;;;6.10;3.13;;;4.40;99.90;;;;;;5051816;28;20200;-78
2022/01/21 06:43:46;;;;;;;7.90;2.95;;;4.50;99.90;;;;;;5052047;28;20536;-78
2022/01/21 06:46:12;;;;;;;9.73;3.60;;;4.60;99.90;;;;;;5052841;28;20172;-78
2022/01/21 06:48:37;;;;;;;9.25;3.78;;;4.30;99.90;;;;;;5052909;28;20178;-78
2022/01/21 06:51:04;;;;;;;9.85;3.50;;;4.30;99.90;;;;;;5053095;28;20273;-80
2022/01/21 06:53:29;;;;;;;8.75;3.88;;;4.30;99.90;;;;;;5051683;28;20639;-76
2022/01/21 06:55:55;;;;;;;13.45;4.72;;;4.30;99.90;;;;;;5053524;28;20194;-80
2022/01/21 06:58:20;;;;;;;12.85;3.50;;;4.40;99.90;;;;;;5052930;28;20167;-76
2022/01/21 07:00:46;;;;;;;9.55;4.15;;;4.60;99.90;;;;;;5053133;28;20229;-78
2022/01/21 07:03:12;;;;;;;8.18;3.58;;;4.70;99.90;;;;;;5054581;28;20489;-79
2022/01/21 07:05:38;;;;;;;6.50;3.30;;;4.70;99.90;;;;;;5054508;28;20164;-77
2022/01/21 07:08:04;;;;;;;15.93;5.13;;;4.60;99.90;;;;;;5057018;28;20171;-77
2022/01/21 07:10:30;;;;;;;7.15;4.15;;;4.70;99.90;;;;;;5055031;28;20187;-78
2022/01/21 07:12:57;;;;;;;9.00;3.65;;;4.70;99.90;;;;;;5055424;28;20206;-77
2022/01/21 07:15:22;;;;;;;13.20;3.90;;;4.70;99.90;;;;;;5052535;28;20514;-77
2022/01/21 07:17:52;;;;;;;6.55;3.38;;;4.40;99.90;;;;;;5052339;28;20170;-76
2022/01/21 07:20:18;;;;;;;11.13;3.78;;;4.40;99.90;;;;;;5052037;28;20232;-78
2022/01/21 07:22:44;;;;;;;17.63;5.28;;;4.50;99.90;;;;;;5052226;28;20589;-76
2022/01/21 07:25:10;;;;;;;12.43;4.38;;;4.50;99.90;;;;;;5051973;28;20305;-77
2022/01/21 07:27:36;;;;;;;7.05;3.75;;;4.50;99.90;;;;;;5052325;28;20624;-81
2022/01/21 07:30:04;;;;;;;12.75;4.53;;;4.60;99.90;;;;;;5052200;28;20174;-80
2022/01/21 07:32:30;;;;;;;19.52;3.70;;;4.40;99.90;;;;;;5038349;28;20219;-78
2022/01/21 07:34:56;;;;;;;8.40;4.22;;;4.10;99.90;;;;;;5032655;28;20178;-79
2022/01/21 07:37:21;;;;;;;17.23;4.53;;;4.40;99.90;;;;;;5032102;28;20172;-80
2022/01/21 07:39:47;;;;;;;8.00;4.70;;;4.50;99.90;;;;;;5031945;28;20171;-77
2022/01/21 07:42:12;;;;;;;19.92;5.68;;;4.30;99.90;;;;;;5032597;28;20615;-78
2022/01/21 07:44:38;;;;;;;12.50;5.93;;;4.40;99.90;;;;;;5032908;28;20617;-78
2022/01/21 07:47:05;;;;;;;8.30;4.88;;;4.50;99.90;;;;;;5031992;28;20175;-78
2022/01/21 07:49:31;;;;;;;15.15;3.75;;;4.60;99.90;;;;;;5032064;28;20203;-80
2022/01/21 07:51:56;;;;;;;13.80;5.28;;;4.60;99.90;;;;;;5032686;28;20206;-77
2022/01/21 07:54:22;;;;;;;25.20;5.25;;;4.60;99.90;;;;;;5032639;28;20254;-76
2022/01/21 07:56:47;;;;;;;11.52;4.32;;;4.50;99.90;;;;;;5036571;28;20510;-78
2022/01/21 07:59:14;;;;;;;9.45;4.47;;;4.50;99.90;;;;;;5036030;28;20171;-77
2022/01/21 08:01:40;;;;;;;11.88;4.50;;;4.50;99.90;;;;;;5036715;28;20642;-78
2022/01/21 08:04:06;;;;;;;7.47;3.95;;;4.70;99.90;;;;;;5036644;28;20185;-77
2022/01/21 08:06:33;;;;;;;9.77;4.70;;;4.90;99.90;;;;;;5036894;28;20168;-87
2022/01/21 08:08:59;;;;;;;21.27;4.10;;;4.80;99.90;;;;;;5036699;28;20168;-82
2022/01/21 08:11:25;;;;;;;15.40;3.72;;;4.70;99.90;;;;;;5035741;28;20644;-76
2022/01/21 08:13:51;;;;;;;17.08;4.28;;;4.80;99.90;;;;;;5036723;28;20187;-76
2022/01/21 08:16:18;;;;;;;6.95;3.78;;;4.70;99.90;;;;;;5036673;28;20560;-85
2022/01/21 08:18:44;;;;;;;14.02;4.32;;;4.70;99.90;;;;;;5036195;28;20172;-77
2022/01/21 08:21:10;;;;;;;12.77;4.60;;;4.80;99.90;;;;;;5034009;28;20254;-76
2022/01/21 08:23:36;;;;;;;12.35;4.35;;;4.80;99.90;;;;;;5034327;28;20168;-77
2022/01/21 08:26:02;;;;;;;12.40;4.03;;;5.00;99.90;;;;;;5036253;28;20644;-77
2022/01/21 08:28:27;;;;;;;16.65;3.28;;;5.20;99.90;;;;;;5035800;28;20168;-78
2022/01/21 08:30:53;;;;;;;15.93;3.95;;;5.10;99.90;;;;;;5035536;28;20184;-76
2022/01/21 08:33:20;;;;;;;18.98;3.60;;;5.30;99.90;;;;;;5035186;28;20203;-77
2022/01/21 08:35:45;;;;;;;11.20;4.15;;;5.20;99.90;;;;;;5035568;28;20523;-88
2022/01/21 08:38:11;;;;;;;17.50;3.25;;;5.30;99.90;;;;;;5035372;28;20175;-82
2022/01/21 08:40:37;;;;;;;18.17;4.05;;;5.40;99.90;;;;;;5051292;28;20195;-81
2022/01/21 08:43:03;;;;;;;7.03;3.75;;;5.40;99.90;;;;;;5035404;28;20603;-80
2022/01/21 08:45:29;;;;;;;8.13;4.53;;;5.40;99.90;;;;;;5035359;28;20176;-76
2022/01/21 08:47:55;;;;;;;12.23;4.45;;;5.40;99.90;;;;;;5035957;28;20255;-76
2022/01/21 08:50:22;;;;;;;12.27;3.92;;;5.30;99.90;;;;;;5035498;28;20168;-77
2022/01/21 08:52:48;;;;;;;17.63;4.13;;;5.30;99.90;;;;;;5035471;28;20203;-88
2022/01/21 08:55:17;;;;;;;8.15;3.30;;;5.40;99.90;;;;;;5033839;28;20168;-76
2022/01/21 08:57:44;;;;;;;6.10;3.03;;;5.50;99.90;;;;;;5035129;28;20526;-78
2022/01/21 09:00:17;;;;;;;20.33;4.45;;;5.60;99.90;;;;;;5035296;28;20164;-76
2022/01/21 09:02:43;;;;;;;9.73;3.13;;;5.60;99.90;;;;;;5035336;28;20175;-77
2022/01/21 09:05:09;;;;;;;10.55;3.28;;;5.60;99.90;;;;;;5035102;28;20172;-76
2022/01/21 09:07:35;;;;;;;9.23;3.35;;;5.80;99.90;;;;;;5034177;28;20164;-79
2022/01/21 09:10:02;;;;;;;6.57;3.25;;;5.70;99.90;;;;;;5035144;28;20873;-77
2022/01/21 09:12:28;;;;;;;12.63;3.65;;;5.60;99.90;;;;;;5035183;28;20223;-77
2022/01/21 09:14:54;;;;;;;11.13;3.22;;;5.60;99.90;;;;;;5035197;28;20167;-84
2022/01/21 09:17:19;;;;;;;8.18;2.55;;;5.70;99.90;;;;;;5045100;28;20173;-79
2022/01/21 09:19:45;;;;;;;9.40;3.72;;;5.80;99.90;;;;;;5055142;28;20545;-77
2022/01/21 09:22:11;;;;;;;10.40;3.45;;;5.80;99.90;;;;;;5054875;28;20643;-87
2022/01/21 09:24:36;;;;;;;14.25;2.83;;;5.70;99.90;;;;;;5054787;28;20314;-81
2022/01/21 09:27:04;;;;;;;9.70;3.42;;;5.60;99.90;;;;;;5054680;28;20175;-76
2022/01/21 09:29:30;;;;;;;11.88;3.17;;;5.70;99.90;;;;;;5054637;28;20513;-77
2022/01/21 09:31:56;;;;;;;7.22;3.45;;;5.50;99.90;;;;;;5054440;28;20191;-78
2022/01/21 09:34:24;;;;;;;8.32;2.92;;;5.50;99.90;;;;;;5054571;28;20575;-77
2022/01/21 09:36:50;;;;;;;4.38;2.88;;;5.60;99.90;;;;;;5054590;28;20179;-89
2022/01/21 09:39:16;;;;;;;17.65;3.78;;;5.60;99.90;;;;;;5053275;28;20167;-83
2022/01/21 09:41:43;;;;;;;8.68;4.03;;;5.70;99.90;;;;;;5054963;28;20248;-77
2022/01/21 09:44:12;;;;;;;11.00;2.97;;;5.70;99.90;;;;;;5054409;28;20166;-77
2022/01/21 09:46:42;;;;;;;11.07;3.00;;;5.70;99.90;;;;;;5054573;28;20175;-77
2022/01/21 09:49:25;;;;;;;8.95;3.85;;;6.10;99.90;;;;;;5054248;28;20163;-84
2022/01/21 09:51:58;;;;;;;17.98;3.90;;;6.30;99.90;;;;;;5053956;28;20336;-76
2022/01/21 09:54:28;;;;;;;15.00;3.63;;;6.20;99.90;;;;;;5054048;28;20552;-80
2022/01/21 09:56:55;;;;;;;11.68;4.03;;;6.30;99.90;;;;;;5053873;28;20228;-79
2022/01/21 09:59:25;;;;;;;17.20;3.85;;;6.30;99.90;;;;;;5053988;28;20599;-81
2022/01/21 10:01:55;;;;;;;9.65;3.10;;;6.10;99.90;;;;;;5054220;28;20183;-79
2022/01/21 10:04:25;;;;;;;15.32;3.53;;;6.10;99.90;;;;;;5053067;28;20173;-76
2022/01/21 10:06:51;;;;;;;10.05;3.47;;;6.10;99.90;;;;;;5053610;28;20163;-77
2022/01/21 10:09:20;;;;;;;9.90;2.90;;;6.10;99.90;;;;;;5052075;28;20642;-78
2022/01/21 10:11:49;;;;;;;12.50;3.38;;;6.40;99.90;;;;;;5054329;28;20179;-79
2022/01/21 10:14:19;;;;;;;5.07;3.33;;;6.30;99.90;;;;;;5054427;28;20163;-86
2022/01/21 10:16:46;;;;;;;8.43;3.67;;;6.30;99.90;;;;;;5054363;28;20242;-77
2022/01/21 10:19:12;;;;;;;12.77;2.78;;;6.30;99.90;;;;;;5053644;28;20309;-76
2022/01/21 10:21:43;;;;;;;10.60;3.35;;;6.30;99.90;;;;;;5057356;28;20255;-77
2022/01/21 10:24:13;;;;;;;9.57;3.33;;;6.30;99.90;;;;;;5060058;28;20229;-76
2022/01/21 10:26:51;;;;;;;9.48;3.05;;;6.40;99.90;;;;;;5060033;28;20254;-78
2022/01/21 10:29:17;;;;;;;9.05;3.17;;;6.40;99.90;;;;;;5059127;28;20173;-77
2022/01/21 10:31:53;;;;;;;7.50;3.15;;;6.50;99.90;;;;;;5053478;28;20183;-76
2022/01/21 10:34:25;;;;;;;8.35;3.10;;;6.80;99.90;;;;;;5053237;28;20217;-76
2022/01/21 10:36:57;;;;;;;8.63;3.55;;;6.80;99.90;;;;;;5053382;28;20179;-76
2022/01/21 10:39:30;;;;;;;13.73;3.17;;;6.60;99.90;;;;;;5052908;28;20257;-76
2022/01/21 10:41:57;;;;;;;14.95;3.95;;;6.70;99.90;;;;;;5053290;28;20191;-86
2022/01/21 10:44:30;;;;;;;20.02;3.40;;;7.00;99.90;;;;;;5051921;28;20171;-76
2022/01/21 10:47:04;;;;;;;13.70;3.20;;;7.30;99.90;;;;;;5053414;28;20167;-77
2022/01/21 10:49:29;;;;;;;9.75;3.25;;;7.40;99.90;;;;;;5053076;28;20174;-76
2022/01/21 10:51:55;;;;;;;5.32;3.30;;;7.70;99.90;;;;;;5052778;28;20538;-76
2022/01/21 10:54:26;;;;;;;14.95;4.35;;;7.80;99.90;;;;;;5053136;28;20236;-76
2022/01/21 10:57:13;;;;;;;4.97;3.10;;;7.70;99.90;;;;;;5052934;28;20171;-76
2022/01/21 11:00:06;;;;;;;12.05;3.33;;;7.80;99.90;;;;;;5051662;28;20242;-76
2022/01/21 11:02:45;;;;;;;5.30;3.17;;;7.80;99.90;;;;;;5052665;28;20197;-76
2022/01/21 11:05:38;;;;;;;9.57;2.78;;;7.90;99.90;;;;;;5051615;28;20179;-76
2022/01/21 11:08:07;;;;;;;9.77;2.88;;;8.00;99.90;;;;;;5053282;28;20163;-76
2022/01/21 11:10:36;;;;;;;5.35;3.10;;;7.90;99.90;;;;;;5053275;28;20187;-76
2022/01/21 11:13:10;;;;;;;9.63;2.97;;;7.90;99.90;;;;;;5052905;28;20207;-77
2022/01/21 11:15:44;;;;;;;8.73;3.42;;;7.70;99.90;;;;;;5053404;28;20167;-76
2022/01/21 11:18:14;;;;;;;12.30;4.47;;;7.70;99.90;;;;;;5035536;28;20167;-76
2022/01/21 11:20:41;;;;;;;6.93;3.08;;;7.50;99.90;;;;;;5052798;28;20206;-76
2022/01/21 11:23:09;;;;;;;11.98;2.60;;;7.60;99.90;;;;;;5053227;28;20178;-77
2022/01/21 11:25:49;;;;;;;11.57;3.30;;;7.70;99.90;;;;;;5053045;28;20254;-76
2022/01/21 11:28:26;;;;;;;7.95;3.15;;;7.80;99.90;;;;;;5052939;28;20581;-76
2022/01/21 11:30:53;;;;;;;10.52;3.45;;;7.90;99.90;;;;;;5052744;28;20673;-77
2022/01/21 11:33:20;;;;;;;8.60;2.92;;;8.00;99.90;;;;;;5051451;28;20234;-76
2022/01/21 11:35:50;;;;;;;8.18;3.53;;;8.10;99.90;;;;;;5052788;28;20250;-77
2022/01/21 11:38:18;;;;;;;12.73;4.10;;;8.20;99.90;;;;;;5053008;28;20225;-78
2022/01/21 11:40:45;;;;;;;10.18;3.42;;;8.20;99.90;;;;;;5053344;28;20672;-77
2022/01/21 11:43:11;;;;;;;8.73;3.65;;;8.20;99.90;;;;;;5053494;28;20254;-83
2022/01/21 11:50:46;;;;;;;9.77;4.28;;;8.00;99.90;;;;;;5051221;28;20199;-77
2022/01/21 11:53:12;;;;;;;11.02;3.47;;;8.30;99.90;;;;;;5051467;28;20248;-77
2022/01/21 11:55:45;;;;;;;13.18;4.28;;;8.50;99.90;;;;;;5051980;28;20254;-76
2022/01/21 11:58:17;;;;;;;13.82;3.85;;;8.50;99.90;;;;;;5051926;28;20167;-78
2022/01/21 12:00:44;;;;;;;10.93;3.22;;;8.70;99.90;;;;;;5052023;28;20677;-78
2022/01/21 12:03:10;;;;;;;13.77;3.80;;;8.80;99.90;;;;;;5051950;28;20624;-77
2022/01/21 12:05:35;;;;;;;12.68;3.70;;;9.00;99.90;;;;;;5051928;28;20171;-78
2022/01/21 12:08:05;;;;;;;11.40;3.95;;;9.00;99.90;;;;;;5051731;28;20526;-78
2022/01/21 12:10:34;;;;;;;17.45;3.38;;;9.00;99.90;;;;;;5051674;28;20656;-77
2022/01/21 12:13:11;;;;;;;19.92;3.65;;;8.90;99.90;;;;;;5052241;28;20203;-79
2022/01/21 12:20:55;;;;;;;9.45;3.45;;;8.60;99.90;;;;;;5059237;28;20280;-82
2022/01/21 12:23:22;;;;;;;12.25;3.60;;;8.50;99.90;;;;;;5054950;28;20171;-77
2022/01/21 12:26:23;;;;;;;11.00;3.50;;;8.40;99.90;;;;;;5050757;28;20664;-85
2022/01/21 12:28:58;;;;;;;7.68;3.67;;;8.30;99.90;;;;;;5051899;28;20672;-81
2022/01/21 12:31:25;;;;;;;8.88;3.47;;;8.20;99.90;;;;;;5051242;28;20194;-79
2022/01/21 12:36:18;;;;;;;6.45;3.80;;;7.80;99.90;;;;;;5052851;28;20174;-78
2022/01/21 12:41:36;;;;;;;10.65;4.47;;;7.70;99.90;;;;;;5049084;28;20218;-83
2022/01/21 12:44:04;;;;;;;13.93;5.40;;;8.00;99.90;;;;;;5055460;28;20228;-79
2022/01/21 12:46:40;;;;;;;10.35;4.68;;;8.00;99.90;;;;;;5055573;28;20178;-77
2022/01/21 12:49:24;;;;;;;9.90;4.65;;;8.20;99.90;;;;;;5055572;28;20160;-77
2022/01/21 12:57:27;;;;;;;11.38;4.72;;;8.30;99.90;;;;;;5055400;28;20182;-79
2022/01/21 12:59:58;;;;;;;12.13;4.25;;;8.20;99.90;;;;;;5055423;28;20160;-85
2022/01/21 13:02:28;;;;;;;10.13;4.32;;;8.10;99.90;;;;;;5056148;28;20199;-88
2022/01/21 13:05:06;;;;;;;9.52;4.30;;;8.10;99.90;;;;;;5056373;28;20163;-87
2022/01/21 13:07:45;;;;;;;14.02;3.65;;;8.30;99.90;;;;;;5057073;28;20246;-85
2022/01/21 13:10:27;;;;;;;16.92;3.63;;;8.30;99.90;;;;;;5056614;28;20174;-86
2022/01/21 13:15:48;;;;;;;10.43;4.32;;;8.40;99.90;;;;;;5057223;28;20642;-88
2022/01/21 13:18:15;;;;;;;14.15;4.20;;;8.30;99.90;;;;;;5054302;28;20171;-79
2022/01/21 13:20:48;;;;;;;12.68;4.65;;;8.40;99.90;;;;;;5056411;28;20203;-87
2022/01/21 13:23:51;;;;;;;16.52;4.05;;;8.30;99.90;;;;;;5057138;28;20155;-86
2022/01/21 13:26:19;;;;;;;13.13;3.97;;;8.30;99.90;;;;;;5057198;28;20159;-87
2022/01/21 13:28:58;;;;;;;9.82;3.88;;;8.40;99.90;;;;;;5056542;28;20190;-89
2022/01/21 13:31:25;;;;;;;10.70;4.93;;;8.20;99.90;;;;;;5056623;28;20199;-87
2022/01/21 13:33:51;;;;;;;9.05;3.75;;;8.20;99.90;;;;;;5057138;28;20222;-78
2022/01/21 13:36:37;;;;;;;8.07;3.47;;;8.00;99.90;;;;;;5065972;28;20229;-84
2022/01/21 13:39:10;;;;;;;10.30;4.60;;;8.00;99.90;;;;;;5076766;28;20190;-87
2022/01/21 13:42:07;;;;;;;5.38;3.08;;;8.10;99.90;;;;;;5075382;28;20188;-89
2022/01/21 13:44:34;;;;;;;14.65;5.75;;;8.20;99.90;;;;;;5061038;28;20657;-91
2022/01/21 13:47:03;;;;;;;8.82;4.38;;;8.40;99.90;;;;;;5057479;28;20186;-89
2022/01/21 13:49:28;;;;;;;12.65;4.65;;;8.40;99.90;;;;;;5058780;28;20167;-90
2022/01/21 13:52:00;;;;;;;7.10;4.20;;;8.20;99.90;;;;;;5056186;28;20195;-90
2022/01/21 13:54:32;;;;;;;12.50;4.28;;;8.30;99.90;;;;;;5056518;28;20194;-90
2022/01/21 13:56:58;;;;;;;9.73;4.72;;;8.40;99.90;;;;;;5058673;28;20171;-87
2022/01/21 13:59:24;;;;;;;20.17;7.88;;;8.30;99.90;;;;;;5057253;28;20174;-88